createdAt,value
2023-03-07T00:00:18.525Z,3.10
2023-03-07T00:04:23.111Z,3.10
2023-03-07T00:08:25.083Z,3.10
2023-03-07T00:12:27.109Z,3.10
2023-03-07T00:16:29.180Z,3.10
2023-03-07T00:20:33.756Z,3.10
2023-03-07T00:24:35.838Z,3.10
2023-03-07T00:28:37.811Z,3.10
2023-03-07T00:32:39.812Z,3.10
2023-03-07T00:36:44.466Z,3.10
2023-03-07T00:40:46.442Z,3.10
2023-03-07T00:44:48.413Z,3.10
2023-03-07T00:48:50.378Z,3.10
2023-03-07T00:52:54.978Z,3.20
2023-03-07T00:56:56.944Z,3.10
2023-03-07T01:00:59.786Z,3.10
2023-03-07T01:05:01.803Z,3.10
2023-03-07T01:09:07.870Z,3.10
2023-03-07T01:13:10.736Z,3.10
2023-03-07T01:17:12.701Z,3.10
2023-03-07T01:21:16.682Z,3.00
2023-03-07T01:25:21.241Z,3.00
2023-03-07T01:29:23.217Z,3.00
2023-03-07T01:33:25.601Z,3.10
2023-03-07T01:37:27.563Z,3.00
2023-03-07T01:41:32.746Z,3.00
2023-03-07T01:46:16.614Z,3.00
2023-03-07T01:50:19.358Z,3.00
2023-03-07T01:54:22.870Z,3.00
2023-03-07T01:58:27.479Z,3.00
2023-03-07T02:02:29.622Z,3.00
2023-03-07T02:06:34.276Z,3.00
2023-03-07T02:10:37.060Z,3.00
2023-03-07T02:14:44.281Z,3.00
2023-03-07T02:18:49.481Z,3.00
2023-03-07T02:22:52.003Z,3.00
2023-03-07T02:26:58.465Z,3.00
2023-03-07T02:31:02.198Z,3.00
2023-03-07T02:35:13.028Z,3.00
2023-03-07T02:39:15.387Z,3.00
2023-03-07T02:43:20.987Z,3.00
2023-03-07T02:47:22.986Z,3.00
2023-03-07T02:51:24.997Z,3.00
2023-03-07T02:55:27.010Z,3.00
2023-03-07T02:59:31.581Z,3.00
2023-03-07T03:03:33.545Z,3.00
2023-03-07T03:07:35.645Z,3.00
2023-03-07T03:11:37.624Z,3.00
2023-03-07T03:15:42.436Z,3.00
2023-03-07T03:19:44.381Z,3.00
2023-03-07T03:23:46.462Z,3.00
2023-03-07T03:27:48.881Z,3.00
2023-03-07T03:31:53.461Z,3.00
2023-03-07T03:35:55.751Z,3.00
2023-03-07T03:39:57.753Z,3.00
2023-03-07T03:43:59.719Z,3.00
2023-03-07T03:48:04.734Z,3.00
2023-03-07T03:52:06.906Z,3.00
2023-03-07T03:56:11.504Z,3.00
2023-03-07T04:00:14.029Z,3.00
2023-03-07T04:04:18.611Z,3.00
2023-03-07T04:08:20.592Z,3.00
2023-03-07T04:12:22.546Z,3.00
2023-03-07T04:16:24.735Z,3.00
2023-03-07T04:20:29.380Z,3.00
2023-03-07T04:24:31.333Z,3.00
2023-03-07T04:28:35.385Z,3.00
2023-03-07T04:32:37.391Z,3.00
2023-03-07T04:36:41.958Z,3.00
2023-03-07T04:40:43.953Z,3.00
2023-03-07T04:44:45.894Z,3.00
2023-03-07T04:48:47.977Z,2.80
2023-03-07T04:52:52.539Z,2.70
2023-03-07T04:56:54.472Z,2.70
2023-03-07T05:00:56.599Z,2.60
2023-03-07T05:04:58.648Z,2.50
2023-03-07T05:09:03.369Z,2.50
2023-03-07T05:13:05.316Z,2.50
2023-03-07T05:17:07.303Z,2.50
2023-03-07T05:21:09.235Z,2.40
2023-03-07T05:25:13.879Z,2.40
2023-03-07T05:29:15.867Z,2.30
2023-03-07T05:33:17.880Z,2.30
2023-03-07T05:37:19.901Z,2.30
2023-03-07T05:41:24.564Z,2.30
2023-03-07T05:45:26.697Z,2.20
2023-03-07T05:49:28.654Z,2.10
2023-03-07T05:53:30.800Z,2.10
2023-03-07T05:57:35.442Z,2.00
2023-03-07T06:01:37.441Z,2.00
2023-03-07T06:05:39.472Z,2.10
2023-03-07T06:09:41.522Z,2.00
2023-03-07T06:13:46.341Z,2.00
2023-03-07T06:17:48.436Z,2.00
2023-03-07T06:21:50.406Z,2.10
2023-03-07T06:25:52.436Z,2.10
2023-03-07T06:29:57.024Z,2.10
